Time;durP1;ratioP1;P1;durP2;ratioP2;P2;SDS_P1;SDS_P2;PMS_P1;PMS_P2;Temp;Humidity;BMP_temperature;BMP_pressure;BME280_temperature;BME280_humidity;BME280_pressure;Samples;Min_cycle;Max_cycle;Signal;HPM_P1;HPM_P2
2022/06/27 00:02:16;;;;;;;;;;;17.50;99.90;;;;;;5027921;28;19925;-77
2022/06/27 00:04:42;;;;;;;;;;;17.50;99.90;;;;;;5069297;28;19925;-77
2022/06/27 00:07:08;;;;;;;;;;;17.50;99.90;;;;;;5069333;28;19925;-77
2022/06/27 00:09:33;;;;;;;;;;;17.40;99.90;;;;;;5035647;28;20007;-77
2022/06/27 00:12:00;;;;;;;;;;;17.40;99.90;;;;;;5035088;28;19968;-77
2022/06/27 00:14:26;;;;;;;;;;;17.40;99.90;;;;;;5052230;28;19932;-79
2022/06/27 00:16:52;;;;;;;;;;;17.40;99.90;;;;;;5019331;28;19924;-78
2022/06/27 00:19:17;;;;;;;;;;;17.40;99.90;;;;;;5035669;28;20363;-79
2022/06/27 00:21:43;;;;;;;;;;;17.40;99.90;;;;;;4998997;28;19925;-79
2022/06/27 00:24:09;;;;;;;;;;;17.50;99.90;;;;;;4993072;28;19925;-79
2022/06/27 00:26:34;;;;;;;;;;;17.40;99.90;;;;;;4992759;28;19930;-79
2022/06/27 00:29:00;;;;;;;;;;;17.40;99.90;;;;;;5009262;28;19932;-78
2022/06/27 00:31:25;;;;;;;;;;;17.40;99.90;;;;;;4992830;28;20365;-78
2022/06/27 00:33:51;;;;;;;;;;;17.30;99.90;;;;;;4992760;28;19930;-78
2022/06/27 00:36:17;;;;;;;;;;;17.40;99.90;;;;;;4992414;28;20392;-78
2022/06/27 00:38:42;;;;;;;;;;;17.40;99.90;;;;;;4992824;28;19926;-78
2022/06/27 00:41:08;;;;;;;;;;;17.30;99.90;;;;;;4992583;28;20357;-78
2022/06/27 00:43:33;;;;;;;;;;;17.40;99.90;;;;;;4993464;28;19936;-78
2022/06/27 00:45:59;;;;;;;;;;;17.30;99.90;;;;;;5006542;28;19926;-78
2022/06/27 00:48:24;;;;;;;;;;;17.30;99.90;;;;;;5025290;28;20023;-78
2022/06/27 00:50:50;;;;;;;;;;;17.40;99.90;;;;;;5025567;28;19993;-78
2022/06/27 00:53:16;;;;;;;;;;;17.30;99.90;;;;;;5032333;28;20257;-79
2022/06/27 00:55:42;;;;;;;;;;;17.20;99.90;;;;;;5012128;28;20380;-79
2022/06/27 00:58:07;;;;;;;;;;;17.20;99.90;;;;;;4995741;28;20020;-78
2022/06/27 01:00:33;;;;;;;;;;;17.20;99.90;;;;;;5011835;28;20349;-79
2022/06/27 01:02:58;;;;;;;;;;;17.10;99.90;;;;;;4995229;28;19925;-79
2022/06/27 01:05:24;;;;;;;;;;;17.10;99.90;;;;;;5011888;28;19929;-79
2022/06/27 01:07:50;;;;;;;;;;;17.10;99.90;;;;;;5011842;28;20237;-79
2022/06/27 01:10:15;;;;;;;;;;;17.10;99.90;;;;;;5011978;28;19933;-79
2022/06/27 01:12:41;;;;;;;;;;;17.10;99.90;;;;;;4995532;28;19929;-79
2022/06/27 01:15:07;;;;;;;;;;;17.10;99.90;;;;;;4979769;28;19926;-78
2022/06/27 01:17:34;;;;;;;;;;;17.10;99.90;;;;;;5008500;28;19932;-79
2022/06/27 01:19:59;;;;;;;;;;;17.10;99.90;;;;;;4993030;28;19971;-78
2022/06/27 01:22:25;;;;;;;;;;;17.10;99.90;;;;;;5047495;28;19930;-81
2022/06/27 01:24:50;;;;;;;;;;;17.10;99.90;;;;;;5025441;28;19928;-79
2022/06/27 01:27:16;;;;;;;;;;;17.10;99.90;;;;;;5051255;28;20008;-79
2022/06/27 01:29:42;;;;;;;;;;;17.10;99.90;;;;;;5034477;28;20368;-79
2022/06/27 01:32:08;;;;;;;;;;;17.10;99.90;;;;;;5067828;28;19925;-79
2022/06/27 01:34:34;;;;;;;;;;;17.10;99.90;;;;;;5046036;28;20254;-79
2022/06/27 01:36:59;;;;;;;;;;;17.10;99.90;;;;;;5014881;28;19926;-79
2022/06/27 01:39:25;;;;;;;;;;;17.10;99.90;;;;;;5117783;27;19929;-80
2022/06/27 01:41:55;;;;;;;;;;;17.10;99.90;;;;;;5014472;28;19948;-79
2022/06/27 01:44:23;;;;;;;;;;;17.10;99.90;;;;;;5014657;28;19925;-80
2022/06/27 01:46:49;;;;;;;;;;;17.10;99.90;;;;;;5033988;28;20380;-79
2022/06/27 01:49:16;;;;;;;;;;;17.10;99.90;;;;;;5067620;28;19928;-79
2022/06/27 01:51:42;;;;;;;;;;;17.10;99.90;;;;;;5033694;28;20260;-80
2022/06/27 01:54:08;;;;;;;;;;;17.10;99.90;;;;;;5016625;28;19932;-79
2022/06/27 01:56:34;;;;;;;;;;;17.10;99.90;;;;;;5014326;28;19925;-79
2022/06/27 01:59:00;;;;;;;;;;;17.10;99.90;;;;;;5047743;28;19951;-79
2022/06/27 02:01:26;;;;;;;;;;;17.10;99.90;;;;;;5014123;28;19970;-80
2022/06/27 02:03:52;;;;;;;;;;;17.10;99.90;;;;;;5043453;28;19931;-79
2022/06/27 02:06:18;;;;;;;;;;;17.10;99.90;;;;;;5016222;28;19925;-79
2022/06/27 02:08:46;;;;;;;;;;;17.10;99.90;;;;;;5033866;28;20253;-79
2022/06/27 02:11:12;;;;;;;;;;;17.10;99.90;;;;;;5050581;28;19981;-79
2022/06/27 02:13:38;;;;;;;;;;;17.10;99.90;;;;;;5112597;27;19925;-79
2022/06/27 02:16:06;;;;;;;;;;;17.10;99.90;;;;;;5014191;28;20031;-80
2022/06/27 02:18:32;;;;;;;;;;;17.10;99.90;;;;;;5030512;28;19932;-79
2022/06/27 02:20:58;;;;;;;;;;;17.20;99.90;;;;;;5030168;28;19926;-79
2022/06/27 02:23:23;;;;;;;;;;;17.10;99.90;;;;;;5014736;28;19925;-79
2022/06/27 02:25:49;;;;;;;;;;;17.10;99.90;;;;;;5046873;28;19932;-79
2022/06/27 02:28:16;;;;;;;;;;;17.10;99.90;;;;;;5046943;28;19930;-79
2022/06/27 02:30:42;;;;;;;;;;;17.10;99.90;;;;;;5029876;28;19925;-82
2022/06/27 02:33:07;;;;;;;;;;;17.00;99.90;;;;;;5119176;27;19968;-79
2022/06/27 02:35:33;;;;;;;;;;;17.00;99.90;;;;;;5035273;27;19925;-79
2022/06/27 02:37:59;;;;;;;;;;;17.00;99.90;;;;;;5030277;28;19971;-79
2022/06/27 02:40:25;;;;;;;;;;;17.00;99.90;;;;;;5013717;28;19929;-79
2022/06/27 02:42:53;;;;;;;;;;;17.00;99.90;;;;;;5077350;27;19923;-79
2022/06/27 02:45:18;;;;;;;;;;;17.00;99.90;;;;;;5102120;27;19923;-79
2022/06/27 02:47:47;;;;;;;;;;;17.00;99.90;;;;;;5137336;27;19930;-79
2022/06/27 02:50:13;;;;;;;;;;;17.00;99.90;;;;;;5119975;27;19923;-79
2022/06/27 02:52:41;;;;;;;;;;;17.00;99.90;;;;;;5137173;27;19924;-79
2022/06/27 02:55:07;;;;;;;;;;;17.10;99.90;;;;;;5112603;27;20301;-79
2022/06/27 02:57:40;;;;;;;;;;;17.00;99.90;;;;;;5033173;28;20402;-79
2022/06/27 03:00:07;;;;;;;;;;;17.00;99.90;;;;;;5033042;28;19925;-79
2022/06/27 03:02:35;;;;;;;;;;;17.10;99.90;;;;;;5049261;28;19983;-79
2022/06/27 03:05:01;;;;;;;;;;;17.00;99.90;;;;;;5129397;27;19923;-79
2022/06/27 03:07:26;;;;;;;;;;;17.10;99.90;;;;;;5030478;27;19931;-79
2022/06/27 03:09:52;;;;;;;;;;;17.10;99.90;;;;;;5045997;28;19982;-79
2022/06/27 03:12:18;;;;;;;;;;;17.10;99.90;;;;;;4997098;28;19933;-79
2022/06/27 03:14:43;;;;;;;;;;;17.10;99.90;;;;;;5033090;27;19924;-79
2022/06/27 03:17:09;;;;;;;;;;;17.10;99.90;;;;;;5047355;28;19925;-79
2022/06/27 03:19:34;;;;;;;;;;;17.00;99.90;;;;;;5049016;28;19929;-79
2022/06/27 03:22:00;;;;;;;;;;;17.10;99.90;;;;;;5065301;28;19932;-79
2022/06/27 03:24:25;;;;;;;;;;;17.00;99.90;;;;;;5052860;27;19992;-80
2022/06/27 03:26:51;;;;;;;;;;;17.00;99.90;;;;;;5103416;27;19979;-79
2022/06/27 03:29:17;;;;;;;;;;;17.10;99.90;;;;;;5049498;28;20261;-79
2022/06/27 03:31:44;;;;;;;;;;;17.00;99.90;;;;;;5016099;28;19939;-79
2022/06/27 03:34:10;;;;;;;;;;;17.00;99.90;;;;;;5032842;28;19931;-79
2022/06/27 03:36:36;;;;;;;;;;;16.90;99.90;;;;;;5048362;28;19924;-80
2022/06/27 03:39:02;;;;;;;;;;;16.90;99.90;;;;;;5032872;28;19932;-79
2022/06/27 03:41:27;;;;;;;;;;;16.90;99.90;;;;;;5058440;27;20331;-80
2022/06/27 03:43:53;;;;;;;;;;;16.90;99.90;;;;;;5084482;27;20078;-79
2022/06/27 03:46:18;;;;;;;;;;;16.90;99.90;;;;;;5074765;27;20292;-79
2022/06/27 03:51:42;;;;;;;;;;;16.90;99.90;;;;;;5068615;28;19926;-79
2022/06/27 03:54:08;;;;;;;;;;;16.90;99.90;;;;;;5048152;27;19928;-79
2022/06/27 03:56:34;;;;;;;;;;;16.80;99.90;;;;;;5032519;28;19925;-79
2022/06/27 03:58:59;;;;;;;;;;;16.90;99.90;;;;;;5045644;27;19930;-79
2022/06/27 04:01:25;;;;;;;;;;;16.90;99.90;;;;;;5153784;27;20014;-79
2022/06/27 04:03:51;;;;;;;;;;;16.80;99.90;;;;;;5126910;27;20337;-79
2022/06/27 04:06:16;;;;;;;;;;;16.90;99.90;;;;;;5136878;27;19923;-79
2022/06/27 04:08:43;;;;;;;;;;;16.90;99.90;;;;;;5103228;27;20383;-80
2022/06/27 04:11:08;;;;;;;;;;;16.90;99.90;;;;;;5028175;28;19932;-79
2022/06/27 04:13:34;;;;;;;;;;;16.90;99.90;;;;;;5028733;28;19925;-79
2022/06/27 04:15:59;;;;;;;;;;;16.90;99.90;;;;;;5116308;28;19990;-79
2022/06/27 04:18:25;;;;;;;;;;;16.90;99.90;;;;;;5012571;28;19974;-80
2022/06/27 04:20:51;;;;;;;;;;;16.90;99.90;;;;;;5114967;27;19923;-79
2022/06/27 04:23:16;;;;;;;;;;;17.00;99.90;;;;;;5079692;28;19970;-79
2022/06/27 04:25:42;;;;;;;;;;;17.00;99.90;;;;;;5031983;28;19933;-79
2022/06/27 04:28:08;;;;;;;;;;;17.10;99.90;;;;;;5032634;28;19925;-79
2022/06/27 04:30:34;;;;;;;;;;;17.10;99.90;;;;;;5122185;27;19931;-79
2022/06/27 04:32:59;;;;;;;;;;;17.10;99.90;;;;;;5058453;28;19952;-79
2022/06/27 04:35:25;;;;;;;;;;;17.10;99.90;;;;;;5035453;28;19984;-81
2022/06/27 04:37:52;;;;;;;;;;;17.10;99.90;;;;;;5051811;28;19932;-79
2022/06/27 04:40:20;;;;;;;;;;;17.10;99.90;;;;;;5058747;27;19923;-79
2022/06/27 04:42:49;;;;;;;;;;;17.00;99.90;;;;;;5032780;28;20399;-79
2022/06/27 04:45:15;;;;;;;;;;;17.00;99.90;;;;;;5051723;28;20279;-79
2022/06/27 04:47:40;;;;;;;;;;;17.00;99.90;;;;;;5035190;28;19924;-86
2022/06/27 04:50:08;;;;;;;;;;;17.00;99.90;;;;;;5035315;28;20019;-79
2022/06/27 04:52:34;;;;;;;;;;;17.00;99.90;;;;;;5075461;27;20012;-79
2022/06/27 04:55:00;;;;;;;;;;;17.00;99.90;;;;;;5052494;28;20002;-79
2022/06/27 04:57:26;;;;;;;;;;;17.10;99.90;;;;;;5015374;28;19932;-80
2022/06/27 04:59:52;;;;;;;;;;;17.20;99.90;;;;;;5079115;27;20293;-80
2022/06/27 05:02:18;;;;;;;;;;;17.20;99.90;;;;;;5044004;27;19931;-79
2022/06/27 05:04:44;;;;;;;;;;;17.20;99.90;;;;;;5080576;27;19925;-80
2022/06/27 05:07:09;;;;;;;;;;;17.30;99.90;;;;;;5035105;28;19924;-79
2022/06/27 05:09:35;;;;;;;;;;;17.40;99.90;;;;;;5034890;28;19944;-79
2022/06/27 05:12:00;;;;;;;;;;;17.40;99.90;;;;;;5067968;28;19925;-79
2022/06/27 05:14:26;;;;;;;;;;;17.50;99.90;;;;;;5031949;28;20294;-80
2022/06/27 05:16:52;;;;;;;;;;;17.50;99.90;;;;;;5014779;28;19966;-80
2022/06/27 05:19:17;;;;;;;;;;;17.50;99.90;;;;;;5047990;28;20271;-80
2022/06/27 05:21:43;;;;;;;;;;;17.60;99.90;;;;;;5029518;28;19929;-79
2022/06/27 05:24:09;;;;;;;;;;;17.60;99.90;;;;;;5008206;28;19932;-79
2022/06/27 05:26:35;;;;;;;;;;;17.70;99.90;;;;;;4993198;28;19973;-79
2022/06/27 05:29:01;;;;;;;;;;;17.70;99.90;;;;;;5009543;28;20391;-79
2022/06/27 05:31:27;;;;;;;;;;;17.80;99.90;;;;;;5040302;28;20004;-79
2022/06/27 05:33:53;;;;;;;;;;;17.80;99.90;;;;;;5011464;28;20024;-79
2022/06/27 05:36:21;;;;;;;;;;;17.90;99.90;;;;;;5010788;28;19926;-79
2022/06/27 05:38:47;;;;;;;;;;;17.90;99.90;;;;;;5011190;28;19991;-90
2022/06/27 05:41:12;;;;;;;;;;;17.90;99.90;;;;;;5010784;28;20274;-80
2022/06/27 05:43:39;;;;;;;;;;;18.00;99.90;;;;;;5011499;28;19926;-79
2022/06/27 05:46:04;;;;;;;;;;;18.10;99.90;;;;;;4994057;28;20369;-79
2022/06/27 05:48:30;;;;;;;;;;;18.10;99.90;;;;;;5027902;28;19932;-79
2022/06/27 05:50:57;;;;;;;;;;;18.10;99.90;;;;;;5041049;28;19968;-79
2022/06/27 05:53:24;;;;;;;;;;;18.20;99.90;;;;;;4991708;28;19925;-79
2022/06/27 05:55:49;;;;;;;;;;;18.30;99.90;;;;;;4975459;28;20392;-80
2022/06/27 05:58:16;;;;;;;;;;;18.30;99.90;;;;;;5008150;28;19930;-79
2022/06/27 06:00:41;;;;;;;;;;;18.40;99.90;;;;;;5024312;28;19929;-79
2022/06/27 06:03:07;;;;;;;;;;;18.40;99.90;;;;;;5007538;28;20400;-79
2022/06/27 06:05:33;;;;;;;;;;;18.50;99.90;;;;;;4981681;28;20289;-79
2022/06/27 06:07:59;;;;;;;;;;;18.40;99.90;;;;;;5014390;28;19932;-79
2022/06/27 06:10:26;;;;;;;;;;;18.50;99.90;;;;;;5023861;28;20020;-79
2022/06/27 06:12:51;;;;;;;;;;;18.50;99.90;;;;;;5023959;28;19925;-81
2022/06/27 06:15:17;;;;;;;;;;;18.50;99.90;;;;;;5007842;28;19926;-79
2022/06/27 06:17:43;;;;;;;;;;;18.60;99.90;;;;;;5023628;28;19976;-78
2022/06/27 06:20:09;;;;;;;;;;;18.70;99.90;;;;;;5026672;28;20345;-77
2022/06/27 06:22:35;;;;;;;;;;;18.80;99.90;;;;;;5013432;28;19925;-79
2022/06/27 06:25:00;;;;;;;;;;;18.80;99.90;;;;;;5013861;28;19925;-78
2022/06/27 06:27:27;;;;;;;;;;;18.90;99.90;;;;;;5030375;28;19925;-79
2022/06/27 06:29:54;;;;;;;;;;;19.00;99.90;;;;;;5034135;28;19964;-83
2022/06/27 06:32:20;;;;;;;;;;;19.00;99.90;;;;;;5063947;27;19928;-79
2022/06/27 06:34:46;;;;;;;;;;;19.00;99.90;;;;;;5067295;28;19928;-80
2022/06/27 06:37:12;;;;;;;;;;;19.10;99.90;;;;;;5041829;28;20019;-80
2022/06/27 06:39:38;;;;;;;;;;;19.20;99.90;;;;;;5105534;27;20084;-79
2022/06/27 06:42:04;;;;;;;;;;;19.10;99.90;;;;;;5042223;28;19981;-79
2022/06/27 06:44:30;;;;;;;;;;;19.10;99.90;;;;;;5085226;27;19921;-80
2022/06/27 06:46:56;;;;;;;;;;;19.10;99.90;;;;;;5072389;28;19954;-79
2022/06/27 06:49:22;;;;;;;;;;;19.00;99.90;;;;;;5081208;28;20345;-79
2022/06/27 06:51:49;;;;;;;;;;;19.00;99.90;;;;;;5028965;28;19920;-80
2022/06/27 06:54:20;;;;;;;;;;;19.00;99.90;;;;;;5030611;28;19925;-80
2022/06/27 06:56:48;;;;;;;;;;;19.00;99.90;;;;;;5015193;28;19936;-80
2022/06/27 06:59:14;;;;;;;;;;;19.00;99.90;;;;;;5106923;27;19976;-79
2022/06/27 07:01:40;;;;;;;;;;;19.00;99.90;;;;;;5134154;27;19929;-79
2022/06/27 07:04:05;;;;;;;;;;;18.90;99.90;;;;;;5022845;28;20437;-80
2022/06/27 07:06:32;;;;;;;;;;;19.00;99.90;;;;;;5030511;28;20023;-82
2022/06/27 07:08:58;;;;;;;;;;;18.90;99.90;;;;;;5013886;28;20025;-81
2022/06/27 07:11:25;;;;;;;;;;;18.90;99.90;;;;;;5048098;28;19929;-79
2022/06/27 07:13:51;;;;;;;;;;;18.90;99.90;;;;;;5021211;28;19925;-80
2022/06/27 07:16:18;;;;;;;;;;;18.90;99.90;;;;;;5022637;28;20055;-77
2022/06/27 07:18:44;;;;;;;;;;;18.90;99.90;;;;;;5035635;28;19924;-78
2022/06/27 07:21:11;;;;;;;;;;;18.80;99.90;;;;;;5106926;27;20031;-81
2022/06/27 07:23:37;;;;;;;;;;;18.80;99.90;;;;;;5050951;28;20361;-79
2022/06/27 07:26:03;;;;;;;;;;;18.80;99.90;;;;;;4994053;28;19976;-80
2022/06/27 07:28:29;;;;;;;;;;;18.80;99.90;;;;;;4994384;28;19925;-79
2022/06/27 07:30:58;;;;;;;;;;;18.90;99.90;;;;;;4990043;28;19979;-80
2022/06/27 07:33:24;;;;;;;;;;;18.80;99.90;;;;;;5055382;28;20004;-78
2022/06/27 07:35:50;;;;;;;;;;;18.80;99.90;;;;;;5016899;28;20048;-78
2022/06/27 07:38:15;;;;;;;;;;;18.80;99.90;;;;;;5035956;28;19936;-78
2022/06/27 07:40:41;;;;;;;;;;;18.80;99.90;;;;;;5026134;28;19951;-78
2022/06/27 07:43:09;;;;;;;;;;;18.90;99.90;;;;;;5049487;28;19992;-78
2022/06/27 07:45:38;;;;;;;;;;;18.90;99.90;;;;;;5089692;28;20436;-79
2022/06/27 07:48:05;;;;;;;;;;;18.90;99.90;;;;;;5019867;28;19927;-78
2022/06/27 07:50:37;;;;;;;;;;;18.90;99.90;;;;;;5091116;28;19950;-78
2022/06/27 07:53:13;;;;;;;;;;;18.90;99.90;;;;;;5101320;28;19935;-77
2022/06/27 07:55:42;;;;;;;;;;;18.80;99.90;;;;;;5094045;28;19928;-77
2022/06/27 07:58:09;;;;;;;;;;;18.80;99.90;;;;;;5059070;28;19933;-82
2022/06/27 08:00:35;;;;;;;;;;;18.90;99.90;;;;;;5043295;28;19956;-80
2022/06/27 08:03:36;;;;;;;;;;;19.00;99.90;;;;;;5010747;28;19925;-81
2022/06/27 08:05:47;;;;;;;;;;;19.10;99.90;;;;;;5014154;28;19929;-80
2022/06/27 08:08:12;;;;;;;;;;;19.10;99.90;;;;;;5049905;28;19935;-81
2022/06/27 08:10:38;;;;;;;;;;;19.20;99.90;;;;;;5032944;28;19929;-81
2022/06/27 08:13:03;;;;;;;;;;;19.20;99.90;;;;;;5012966;28;19925;-85
2022/06/27 08:15:29;;;;;;;;;;;19.20;99.90;;;;;;5091751;28;20387;-81
2022/06/27 08:17:57;;;;;;;;;;;19.20;99.90;;;;;;5023010;28;19933;-82
2022/06/27 08:20:23;;;;;;;;;;;19.20;99.90;;;;;;5057134;28;19954;-82
2022/06/27 08:22:51;;;;;;;;;;;19.20;99.90;;;;;;5036010;28;19928;-82
2022/06/27 08:25:17;;;;;;;;;;;19.20;99.90;;;;;;5059396;27;19932;-82
2022/06/27 08:27:43;;;;;;;;;;;19.30;99.90;;;;;;5047358;28;19971;-84
2022/06/27 08:30:10;;;;;;;;;;;19.30;99.90;;;;;;5070693;27;19976;-81
2022/06/27 08:32:35;;;;;;;;;;;19.50;99.90;;;;;;5096148;27;20024;-81
2022/06/27 08:35:01;;;;;;;;;;;19.50;99.90;;;;;;5136625;27;19925;-82
2022/06/27 08:37:27;;;;;;;;;;;19.50;99.90;;;;;;5093986;27;20287;-82
2022/06/27 08:39:53;;;;;;;;;;;19.60;99.90;;;;;;5035431;28;19925;-81
2022/06/27 08:42:19;;;;;;;;;;;19.70;99.90;;;;;;5051448;28;19939;-81
2022/06/27 08:44:45;;;;;;;;;;;19.80;99.90;;;;;;5068562;28;19925;-81
2022/06/27 08:47:11;;;;;;;;;;;19.80;99.90;;;;;;5034504;28;20061;-82
2022/06/27 08:49:39;;;;;;;;;;;19.80;99.90;;;;;;5035181;28;19925;-81
2022/06/27 08:52:05;;;;;;;;;;;19.80;99.90;;;;;;5035025;28;19925;-81
2022/06/27 08:54:30;;;;;;;;;;;19.90;99.90;;;;;;5034987;28;19929;-81
2022/06/27 08:56:56;;;;;;;;;;;19.90;99.90;;;;;;5035175;28;20257;-82
2022/06/27 08:59:22;;;;;;;;;;;20.10;99.90;;;;;;5029465;28;19925;-81
2022/06/27 09:01:48;;;;;;;;;;;20.10;99.90;;;;;;5055281;27;19923;-81
2022/06/27 09:04:13;;;;;;;;;;;20.30;99.90;;;;;;5156649;27;19930;-82
2022/06/27 09:06:43;;;;;;;;;;;20.40;99.90;;;;;;5139471;27;19923;-81
2022/06/27 09:09:08;;;;;;;;;;;20.50;99.90;;;;;;5138243;27;19923;-84
2022/06/27 09:11:36;;;;;;;;;;;20.70;99.90;;;;;;5044451;27;19981;-81
2022/06/27 09:14:03;;;;;;;;;;;20.90;99.90;;;;;;5078818;27;19923;-81
2022/06/27 09:16:29;;;;;;;;;;;20.80;99.90;;;;;;5139110;27;20358;-81
2022/06/27 09:18:55;;;;;;;;;;;20.90;99.90;;;;;;5078012;27;19931;-81
2022/06/27 09:21:22;;;;;;;;;;;21.00;99.90;;;;;;5070647;27;20433;-81
2022/06/27 09:23:49;;;;;;;;;;;21.00;99.90;;;;;;4998619;28;19954;-81
2022/06/27 09:26:16;;;;;;;;;;;21.20;99.90;;;;;;5043610;27;19948;-82
2022/06/27 09:28:46;;;;;;;;;;;21.30;99.90;;;;;;5087554;27;20006;-79
2022/06/27 09:31:28;;;;;;;;;;;21.40;99.90;;;;;;5062841;28;19998;-90
2022/06/27 09:34:10;;;;;;;;;;;21.60;99.90;;;;;;5018199;28;19951;-80
2022/06/27 09:36:40;;;;;;;;;;;21.70;99.90;;;;;;5067625;28;19936;-80
2022/06/27 09:39:11;;;;;;;;;;;21.80;99.90;;;;;;5080334;27;19930;-81
2022/06/27 09:41:39;;;;;;;;;;;21.80;99.90;;;;;;5054939;27;19925;-83
2022/06/27 09:44:10;;;;;;;;;;;21.90;99.90;;;;;;5017201;28;20403;-83
2022/06/27 09:46:42;;;;;;;;;;;21.90;99.90;;;;;;5093076;27;20405;-84
2022/06/27 09:49:12;;;;;;;;;;;21.90;99.90;;;;;;5042901;27;19929;-85
2022/06/27 09:51:38;;;;;;;;;;;22.00;99.90;;;;;;5070807;28;19979;-85
2022/06/27 09:54:10;;;;;;;;;;;22.00;99.90;;;;;;5041309;28;20383;-85
2022/06/27 09:56:41;;;;;;;;;;;22.10;99.90;;;;;;5051227;28;19966;-84
2022/06/27 09:59:10;;;;;;;;;;;22.00;99.90;;;;;;5084686;28;19929;-83
2022/06/27 10:01:37;;;;;;;;;;;22.00;99.90;;;;;;5051049;28;20455;-83
2022/06/27 10:04:03;;;;;;;;;;;22.00;99.90;;;;;;5038870;28;19929;-83
2022/06/27 10:06:29;;;;;;;;;;;21.90;99.90;;;;;;5052979;27;19976;-85
2022/06/27 10:08:55;;;;;;;;;;;22.00;99.90;;;;;;5012381;28;20021;-85
2022/06/27 10:11:20;;;;;;;;;;;22.00;99.90;;;;;;5030666;28;19936;-85
2022/06/27 10:14:06;;;;;;;;;;;22.00;99.90;;;;;;5067112;28;19924;-85
2022/06/27 10:16:32;;;;;;;;;;;22.00;99.90;;;;;;5064025;28;19935;-86
2022/06/27 10:18:59;;;;;;;;;;;22.00;99.90;;;;;;5031124;28;19929;-85
2022/06/27 10:21:27;;;;;;;;;;;21.90;99.90;;;;;;5030547;28;20173;-85
2022/06/27 10:24:11;;;;;;;;;;;21.90;99.90;;;;;;5047768;28;19942;-85
2022/06/27 10:26:43;;;;;;;;;;;21.90;99.90;;;;;;5009865;28;19982;-86
2022/06/27 10:29:28;;;;;;;;;;;21.90;99.90;;;;;;5041766;28;19925;-84
2022/06/27 10:31:54;;;;;;;;;;;21.90;99.90;;;;;;5076292;27;19927;-82
2022/06/27 10:34:38;;;;;;;;;;;21.90;99.90;;;;;;5101655;27;19925;-83
2022/06/27 10:37:24;;;;;;;;;;;21.80;99.90;;;;;;5030544;28;19925;-82
2022/06/27 10:39:50;;;;;;;;;;;21.90;99.90;;;;;;5029592;27;19936;-82
2022/06/27 10:42:42;;;;;;;;;;;22.00;99.90;;;;;;5032031;27;19928;-82
2022/06/27 10:45:34;;;;;;;;;;;22.10;99.90;;;;;;5017840;28;19932;-83
2022/06/27 10:48:03;;;;;;;;;;;22.10;99.90;;;;;;5032843;28;19925;-80
2022/06/27 10:50:39;;;;;;;;;;;22.10;99.90;;;;;;5031383;28;19983;-77
2022/06/27 10:53:31;;;;;;;;;;;22.10;99.90;;;;;;5031511;28;19928;-83
2022/06/27 10:56:16;;;;;;;;;;;22.20;99.90;;;;;;5021443;28;19925;-80
2022/06/27 10:58:47;;;;;;;;;;;22.20;99.90;;;;;;5050566;27;19933;-80
2022/06/27 11:01:16;;;;;;;;;;;22.00;99.90;;;;;;5033153;28;19931;-80
2022/06/27 11:03:42;;;;;;;;;;;22.00;99.90;;;;;;5055762;27;19936;-80
2022/06/27 11:06:10;;;;;;;;;;;22.00;99.90;;;;;;5112457;27;20411;-80
2022/06/27 11:08:37;;;;;;;;;;;21.90;99.90;;;;;;5097732;28;20600;-80
2022/06/27 11:11:03;;;;;;;;;;;21.70;99.90;;;;;;5117351;27;19936;-81
2022/06/27 11:13:44;;;;;;;;;;;21.60;99.90;;;;;;5037164;28;19929;-81
2022/06/27 11:16:14;;;;;;;;;;;21.60;99.90;;;;;;5032297;28;19932;-83
2022/06/27 11:18:59;;;;;;;;;;;21.50;99.90;;;;;;5029417;28;20372;-83
2022/06/27 11:21:43;;;;;;;;;;;21.50;99.90;;;;;;5091606;27;20378;-83
2022/06/27 11:24:09;;;;;;;;;;;21.60;99.90;;;;;;5147802;27;19924;-84
2022/06/27 11:26:36;;;;;;;;;;;21.50;99.90;;;;;;5127720;28;20447;-86
2022/06/27 11:32:07;;;;;;;;;;;21.60;99.90;;;;;;5111186;28;19928;-91
2022/06/27 11:34:43;;;;;;;;;;;21.60;99.90;;;;;;5109989;28;20068;-81
2022/06/27 11:37:09;;;;;;;;;;;21.60;99.90;;;;;;5110048;28;19928;-83
2022/06/27 11:39:35;;;;;;;;;;;21.60;99.90;;;;;;5111882;28;20116;-83
2022/06/27 11:42:02;;;;;;;;;;;21.60;99.90;;;;;;5104877;28;19924;-83
2022/06/27 11:44:28;;;;;;;;;;;21.60;99.90;;;;;;5097067;28;19927;-84
2022/06/27 11:47:04;;;;;;;;;;;21.60;99.90;;;;;;5113822;28;19935;-83
2022/06/27 11:49:34;;;;;;;;;;;21.70;99.90;;;;;;5148422;27;19928;-87
2022/06/27 11:52:01;;;;;;;;;;;21.90;99.90;;;;;;5086477;28;19935;-86
2022/06/27 11:54:35;;;;;;;;;;;21.90;99.90;;;;;;5096855;28;19999;-86
2022/06/27 11:57:01;;;;;;;;;;;22.00;99.90;;;;;;5097098;28;20360;-86
2022/06/27 11:59:27;;;;;;;;;;;22.00;99.90;;;;;;5113587;28;19928;-86
2022/06/27 12:01:55;;;;;;;;;;;22.00;99.90;;;;;;5099134;28;19928;-86
2022/06/27 12:04:25;;;;;;;;;;;22.10;99.90;;;;;;5096135;28;19938;-86
2022/06/27 12:06:55;;;;;;;;;;;22.10;99.90;;;;;;5113332;28;19928;-86
2022/06/27 12:09:22;;;;;;;;;;;22.10;99.90;;;;;;5131195;27;19934;-86
2022/06/27 12:11:52;;;;;;;;;;;22.10;99.90;;;;;;5129079;27;19999;-84
2022/06/27 12:14:18;;;;;;;;;;;22.00;99.90;;;;;;5130612;27;20383;-83
2022/06/27 12:16:44;;;;;;;;;;;22.00;99.90;;;;;;5129016;27;19935;-84
2022/06/27 12:19:10;;;;;;;;;;;22.00;99.90;;;;;;5097016;28;19993;-84
2022/06/27 12:21:36;;;;;;;;;;;22.00;99.90;;;;;;5101711;27;20412;-81
2022/06/27 12:24:02;;;;;;;;;;;22.10;99.90;;;;;;4990508;28;19932;-84
2022/06/27 12:26:27;;;;;;;;;;;22.20;99.90;;;;;;4998990;28;20364;-86
2022/06/27 12:28:53;;;;;;;;;;;22.40;99.90;;;;;;4993478;28;19936;-84
2022/06/27 12:31:18;;;;;;;;;;;22.60;99.90;;;;;;5042395;28;19957;-86
2022/06/27 12:33:45;;;;;;;;;;;23.10;99.90;;;;;;4993798;28;19979;-84
2022/06/27 12:36:11;;;;;;;;;;;23.20;99.90;;;;;;5012546;28;19983;-85
2022/06/27 12:38:36;;;;;;;;;;;23.20;99.90;;;;;;5042965;28;19961;-87
2022/06/27 12:41:11;;;;;;;;;;;23.10;99.90;;;;;;5009888;28;19979;-85
2022/06/27 12:43:37;;;;;;;;;;;23.00;99.90;;;;;;4994706;28;19929;-84
2022/06/27 12:46:03;;;;;;;;;;;23.00;99.90;;;;;;4993805;28;19926;-87
2022/06/27 12:48:28;;;;;;;;;;;22.90;99.90;;;;;;5026030;28;20482;-84
2022/06/27 12:50:54;;;;;;;;;;;22.80;99.90;;;;;;5025516;28;19943;-83
2022/06/27 12:53:20;;;;;;;;;;;22.80;99.90;;;;;;5009113;28;19929;-79
2022/06/27 12:55:45;;;;;;;;;;;22.80;99.90;;;;;;5042167;28;19944;-80
2022/06/27 12:58:11;;;;;;;;;;;22.80;99.90;;;;;;5025796;27;20338;-80
2022/06/27 13:00:36;;;;;;;;;;;22.80;99.90;;;;;;5018434;28;19929;-83
2022/06/27 13:03:02;;;;;;;;;;;22.70;99.90;;;;;;4978751;28;19983;-84
2022/06/27 13:05:29;;;;;;;;;;;22.70;99.90;;;;;;4976587;28;19932;-84
2022/06/27 13:07:54;;;;;;;;;;;22.60;99.90;;;;;;5008461;28;19976;-85
2022/06/27 13:10:20;;;;;;;;;;;22.50;99.90;;;;;;5004789;28;19961;-85
2022/06/27 13:12:46;;;;;;;;;;;22.60;99.90;;;;;;5020967;28;19933;-85
2022/06/27 13:15:11;;;;;;;;;;;22.60;99.90;;;;;;5016114;28;20002;-83
2022/06/27 13:17:37;;;;;;;;;;;22.70;99.90;;;;;;5089855;28;20420;-85
2022/06/27 13:20:04;;;;;;;;;;;22.70;99.90;;;;;;5017569;28;20256;-86
2022/06/27 13:22:29;;;;;;;;;;;22.70;99.90;;;;;;5105241;28;19991;-86
2022/06/27 13:24:55;;;;;;;;;;;22.60;99.90;;;;;;5008420;28;20385;-87
2022/06/27 13:27:20;;;;;;;;;;;22.50;99.90;;;;;;5027811;28;19952;-82
2022/06/27 13:29:46;;;;;;;;;;;22.50;99.90;;;;;;5012234;28;19929;-81
2022/06/27 13:32:12;;;;;;;;;;;22.40;99.90;;;;;;5028287;28;20399;-82
2022/06/27 13:34:37;;;;;;;;;;;22.30;99.90;;;;;;5008677;28;20304;-81
2022/06/27 13:37:03;;;;;;;;;;;22.10;99.90;;;;;;5010876;28;20384;-80
2022/06/27 13:39:28;;;;;;;;;;;22.00;99.90;;;;;;5042422;27;19937;-80
2022/06/27 13:41:54;;;;;;;;;;;21.90;99.90;;;;;;5008284;28;19945;-79
2022/06/27 13:44:20;;;;;;;;;;;21.90;99.90;;;;;;5008579;28;19925;-79
2022/06/27 13:46:45;;;;;;;;;;;21.90;99.90;;;;;;5024860;28;20361;-80
2022/06/27 13:49:11;;;;;;;;;;;21.90;99.90;;;;;;5035950;28;20288;-84
2022/06/27 13:51:36;;;;;;;;;;;22.00;99.90;;;;;;5037739;28;19926;-84
2022/06/27 13:54:02;;;;;;;;;;;22.00;99.90;;;;;;5008224;28;19932;-85
2022/06/27 13:56:28;;;;;;;;;;;22.00;99.90;;;;;;5024793;28;20385;-80
2022/06/27 13:58:53;;;;;;;;;;;21.90;99.90;;;;;;4995616;28;19933;-81
2022/06/27 14:01:19;;;;;;;;;;;22.00;99.90;;;;;;4993888;28;20361;-81
2022/06/27 14:03:45;;;;;;;;;;;21.90;99.90;;;;;;5011370;28;20373;-82
2022/06/27 14:08:55;;;;;;;;;;;21.90;99.90;;;;;;5012151;28;19937;-81
2022/06/27 14:11:20;;;;;;;;;;;21.80;99.90;;;;;;5005737;28;20364;-79
2022/06/27 14:13:46;;;;;;;;;;;21.70;99.90;;;;;;5041034;28;20013;-80
2022/06/27 14:16:12;;;;;;;;;;;21.60;99.90;;;;;;5012715;28;20050;-81
2022/06/27 14:18:37;;;;;;;;;;;21.60;99.90;;;;;;5007263;28;19978;-79
2022/06/27 14:21:03;;;;;;;;;;;21.50;99.90;;;;;;5009073;28;19930;-79
2022/06/27 14:23:28;;;;;;;;;;;21.40;99.90;;;;;;5041071;28;20400;-79
2022/06/27 14:25:54;;;;;;;;;;;21.30;99.90;;;;;;5090359;27;19927;-79